createdAt,value
2023-05-07T00:03:04.208Z,101194.09
2023-05-07T00:07:06.705Z,101197.38
2023-05-07T00:11:08.752Z,101190.44
2023-05-07T00:15:11.436Z,101189.50
2023-05-07T00:19:13.693Z,101196.19
2023-05-07T00:23:15.618Z,101203.72
2023-05-07T00:27:17.569Z,101197.50
2023-05-07T00:31:19.681Z,101206.53
2023-05-07T00:35:21.883Z,101205.63
2023-05-07T00:39:23.957Z,101209.41
2023-05-07T00:43:26.016Z,101218.78
2023-05-07T00:47:28.071Z,101216.81
2023-05-07T00:51:30.694Z,101220.47
2023-05-07T00:55:33.940Z,101220.59
2023-05-07T00:59:36.597Z,101226.81
2023-05-07T01:03:38.740Z,101223.31
2023-05-07T01:07:43.236Z,101217.34
2023-05-07T01:11:45.446Z,101218.06
2023-05-07T01:15:47.577Z,101225.00
2023-05-07T01:19:50.081Z,101220.47
2023-05-07T01:23:55.796Z,101224.91
2023-05-07T01:28:00.384Z,101221.03
2023-05-07T01:32:06.754Z,101226.69
2023-05-07T01:36:09.827Z,101230.31
2023-05-07T01:40:12.557Z,101232.22
2023-05-07T01:44:16.396Z,101228.81
2023-05-07T01:48:19.410Z,101237.34
2023-05-07T01:52:21.409Z,101223.53
2023-05-07T01:56:23.644Z,101228.81
2023-05-07T02:00:25.740Z,101220.00
2023-05-07T02:04:27.881Z,101216.53
2023-05-07T02:08:30.993Z,101221.31
2023-05-07T02:12:33.824Z,101229.72
2023-05-07T02:16:37.114Z,101232.38
2023-05-07T02:20:39.332Z,101236.63
2023-05-07T02:24:41.596Z,101227.84
2023-05-07T02:28:43.632Z,101240.94
2023-05-07T02:32:46.281Z,101238.13
2023-05-07T02:36:48.539Z,101241.03
2023-05-07T02:40:54.777Z,101238.25
2023-05-07T02:44:56.791Z,101235.06
2023-05-07T02:48:58.907Z,101238.84
2023-05-07T02:53:01.162Z,101243.97
2023-05-07T02:57:04.191Z,101245.34
2023-05-07T03:01:07.078Z,101246.97
2023-05-07T03:05:25.390Z,101247.25
2023-05-07T03:09:27.640Z,101259.19
2023-05-07T03:13:29.634Z,101252.50
2023-05-07T03:17:32.043Z,101251.47
2023-05-07T03:21:35.279Z,101256.59
2023-05-07T03:25:36.876Z,101255.84
2023-05-07T03:29:38.935Z,101266.03
2023-05-07T03:33:52.361Z,101279.91
2023-05-07T03:37:54.436Z,101280.78
2023-05-07T03:41:58.145Z,101279.75
2023-05-07T03:46:00.327Z,101287.59
2023-05-07T03:50:04.470Z,101291.09
2023-05-07T03:54:06.599Z,101294.06
2023-05-07T03:58:09.713Z,101296.75
2023-05-07T04:02:12.696Z,101294.78
2023-05-07T04:06:17.662Z,101303.94
2023-05-07T04:10:22.030Z,101319.09
2023-05-07T04:14:27.277Z,101310.25
2023-05-07T04:18:29.803Z,101302.50
2023-05-07T04:22:31.893Z,101314.44
2023-05-07T04:26:34.902Z,101313.63
2023-05-07T04:30:37.094Z,101318.06
2023-05-07T04:34:41.446Z,101321.59
2023-05-07T04:38:44.090Z,101318.81
2023-05-07T04:42:46.372Z,101329.09
2023-05-07T04:46:49.498Z,101347.31
2023-05-07T04:50:51.987Z,101329.72
2023-05-07T04:54:54.946Z,101328.88
2023-05-07T04:58:57.265Z,101323.88
2023-05-07T05:03:00.249Z,101341.69
2023-05-07T05:07:04.544Z,101356.81
2023-05-07T05:11:07.154Z,101353.41
2023-05-07T05:15:13.536Z,101355.22
2023-05-07T05:19:16.034Z,101341.38
2023-05-07T05:23:20.834Z,101355.06
2023-05-07T05:27:23.538Z,101355.50
2023-05-07T05:31:26.562Z,101354.25
2023-05-07T05:35:28.699Z,101353.34
2023-05-07T05:39:31.795Z,101354.63
2023-05-07T05:43:34.661Z,101362.97
2023-05-07T05:47:36.796Z,101359.16
2023-05-07T05:51:38.948Z,101357.66
2023-05-07T05:55:42.242Z,101360.00
2023-05-07T05:59:44.931Z,101352.81
2023-05-07T06:03:47.003Z,101369.44
2023-05-07T06:07:50.880Z,101364.81
2023-05-07T06:11:53.438Z,101367.47
2023-05-07T06:15:55.780Z,101358.19
2023-05-07T06:19:57.860Z,101367.50
2023-05-07T06:24:00.077Z,101363.41
2023-05-07T06:28:02.252Z,101372.19
2023-05-07T06:32:13.290Z,101370.91
2023-05-07T06:36:17.464Z,101372.34
2023-05-07T06:40:20.816Z,101387.94
2023-05-07T06:44:24.959Z,101388.06
2023-05-07T06:48:35.886Z,101394.53
2023-05-07T06:52:40.940Z,101386.88
2023-05-07T06:56:43.149Z,101392.91
2023-05-07T07:00:45.643Z,101397.25
2023-05-07T07:04:48.446Z,101412.00
2023-05-07T07:08:51.079Z,101414.19
2023-05-07T07:12:54.027Z,101414.56
2023-05-07T07:16:57.163Z,101411.28
2023-05-07T07:21:00.345Z,101440.16
2023-05-07T07:25:02.764Z,101415.97
2023-05-07T07:29:05.567Z,101424.72
2023-05-07T07:33:07.740Z,101441.09
2023-05-07T07:37:12.436Z,101453.78
2023-05-07T07:41:14.509Z,101454.66
2023-05-07T07:45:16.648Z,101457.66
2023-05-07T07:49:22.300Z,101458.53
2023-05-07T07:53:24.495Z,101457.56
2023-05-07T07:57:26.863Z,101459.00
2023-05-07T08:01:31.636Z,101476.66
2023-05-07T08:05:34.489Z,101486.91
2023-05-07T08:09:36.775Z,101456.88
2023-05-07T08:13:40.054Z,101469.31
2023-05-07T08:17:42.453Z,101541.63
2023-05-07T08:21:45.401Z,101534.53
2023-05-07T08:25:47.711Z,101545.16
2023-05-07T08:29:50.890Z,101530.44
2023-05-07T08:33:54.508Z,101555.31
2023-05-07T08:37:56.855Z,101567.50
2023-05-07T08:42:01.969Z,101576.16
2023-05-07T08:46:07.492Z,101582.88
2023-05-07T08:50:14.600Z,101567.81
2023-05-07T08:54:18.810Z,101592.88
2023-05-07T08:58:21.418Z,101595.09
2023-05-07T09:02:23.851Z,101611.09
2023-05-07T09:06:27.632Z,101608.19
2023-05-07T09:10:32.534Z,101604.28
2023-05-07T09:14:34.756Z,101607.00
2023-05-07T09:18:42.504Z,101609.88
2023-05-07T09:22:46.393Z,101619.00
2023-05-07T09:26:51.413Z,101630.41
2023-05-07T09:30:53.876Z,101625.78
2023-05-07T09:34:56.540Z,101630.09
2023-05-07T09:39:01.376Z,101642.00
2023-05-07T09:43:15.118Z,101637.97
2023-05-07T09:47:25.594Z,101642.56
2023-05-07T09:51:32.233Z,101662.00
2023-05-07T09:55:36.223Z,101649.06
2023-05-07T09:59:39.754Z,101657.66
2023-05-07T10:03:47.024Z,101657.47
2023-05-07T10:07:51.337Z,101670.63
2023-05-07T10:11:55.351Z,101664.19
2023-05-07T10:15:58.209Z,101674.25
2023-05-07T10:20:05.051Z,101670.03
2023-05-07T10:24:15.640Z,101680.19
2023-05-07T10:28:20.825Z,101683.97
2023-05-07T10:32:43.547Z,101682.50
2023-05-07T10:36:52.830Z,101678.81
2023-05-07T10:40:55.806Z,101678.69
2023-05-07T10:44:58.271Z,101683.56
2023-05-07T10:49:07.033Z,101696.06
2023-05-07T10:53:27.672Z,101695.44
2023-05-07T10:57:38.777Z,101697.28
2023-05-07T11:01:52.772Z,101691.09
2023-05-07T11:06:16.944Z,101702.59
2023-05-07T11:10:59.447Z,101704.09
2023-05-07T11:15:16.624Z,101705.69
2023-05-07T11:19:38.918Z,101705.47
2023-05-07T11:23:41.584Z,101708.91
2023-05-07T11:28:06.318Z,101707.75
2023-05-07T11:32:09.492Z,101710.72
2023-05-07T11:36:21.839Z,101714.13
2023-05-07T11:40:26.388Z,101708.41
2023-05-07T11:44:43.257Z,101712.50
2023-05-07T11:48:45.320Z,101712.00
2023-05-07T11:52:53.811Z,101722.22
2023-05-07T11:56:57.099Z,101724.59
2023-05-07T12:00:59.242Z,101718.66
2023-05-07T12:05:01.610Z,101728.19
2023-05-07T12:09:03.832Z,101727.56
2023-05-07T12:13:25.105Z,101730.22
2023-05-07T12:17:27.370Z,101726.69
2023-05-07T12:21:30.540Z,101732.63
2023-05-07T12:25:35.592Z,101735.03
2023-05-07T12:29:40.083Z,101735.84
2023-05-07T12:33:42.275Z,101740.19
2023-05-07T12:37:44.544Z,101735.69
2023-05-07T12:41:59.442Z,101726.97
2023-05-07T12:46:05.160Z,101736.59
2023-05-07T12:50:08.081Z,101730.63
2023-05-07T12:54:10.204Z,101732.59
2023-05-07T12:58:20.393Z,101739.00
2023-05-07T13:02:33.868Z,101735.75
2023-05-07T13:06:36.096Z,101744.63
2023-05-07T13:10:38.010Z,101742.25
2023-05-07T13:14:40.352Z,101743.00
2023-05-07T13:18:44.720Z,101738.50
2023-05-07T13:22:47.100Z,101757.50
2023-05-07T13:26:49.242Z,101749.34
2023-05-07T13:30:55.823Z,101749.47
2023-05-07T13:34:58.257Z,101738.56
2023-05-07T13:39:01.525Z,101734.81
2023-05-07T13:43:03.520Z,101733.09
2023-05-07T13:47:05.652Z,101736.44
2023-05-07T13:51:07.666Z,101727.50
2023-05-07T13:55:13.945Z,101731.31
2023-05-07T13:59:16.292Z,101722.13
2023-05-07T14:03:20.708Z,101718.41
2023-05-07T14:07:22.981Z,101734.75
2023-05-07T14:11:25.042Z,101729.88
2023-05-07T14:15:27.106Z,101732.66
2023-05-07T14:19:29.158Z,101741.16
2023-05-07T14:23:31.247Z,101747.69
2023-05-07T14:27:33.685Z,101740.47
2023-05-07T14:31:35.813Z,101730.38
2023-05-07T14:35:37.974Z,101738.66
2023-05-07T14:39:40.892Z,101736.94
2023-05-07T14:43:42.973Z,101738.66
2023-05-07T14:47:45.054Z,101742.09
2023-05-07T14:51:48.081Z,101738.75
2023-05-07T14:55:50.342Z,101745.16
2023-05-07T14:59:52.607Z,101744.34
2023-05-07T15:03:55.615Z,101741.31
2023-05-07T15:07:57.868Z,101741.03
2023-05-07T15:11:59.851Z,101739.88
2023-05-07T15:16:01.995Z,101740.97
2023-05-07T15:20:05.792Z,101742.28
2023-05-07T15:24:10.393Z,101737.09
2023-05-07T15:28:12.666Z,101749.94
2023-05-07T15:32:14.869Z,101747.72
2023-05-07T15:36:16.980Z,101747.03
2023-05-07T15:40:19.146Z,101755.00
2023-05-07T15:44:21.231Z,101744.81
2023-05-07T15:48:23.297Z,101739.03
2023-05-07T15:52:25.491Z,101741.59
2023-05-07T15:56:27.635Z,101746.28
2023-05-07T16:00:29.604Z,101753.09
2023-05-07T16:04:32.175Z,101747.34
2023-05-07T16:08:34.351Z,101745.34
2023-05-07T16:12:36.794Z,101753.75
2023-05-07T16:16:41.092Z,101757.72
2023-05-07T16:20:43.870Z,101756.25
2023-05-07T16:24:46.222Z,101759.00
2023-05-07T16:28:48.555Z,101753.91
2023-05-07T16:32:50.745Z,101752.06
2023-05-07T16:36:52.948Z,101747.28
2023-05-07T16:40:55.254Z,101754.25
2023-05-07T16:44:57.335Z,101755.97
2023-05-07T16:48:59.413Z,101762.00
2023-05-07T16:53:01.511Z,101765.25
2023-05-07T16:57:03.769Z,101765.00
2023-05-07T17:01:05.952Z,101765.09
2023-05-07T17:05:08.518Z,101759.91
2023-05-07T17:09:10.736Z,101762.34
2023-05-07T17:13:13.270Z,101775.19
2023-05-07T17:17:15.676Z,101767.53
2023-05-07T17:21:17.790Z,101773.53
2023-05-07T17:25:20.224Z,101775.91
2023-05-07T17:29:22.292Z,101777.78
2023-05-07T17:33:24.433Z,101778.28
2023-05-07T17:37:27.188Z,101782.88
2023-05-07T17:41:29.223Z,101792.88
2023-05-07T17:45:32.541Z,101787.94
2023-05-07T17:49:35.705Z,101800.91
2023-05-07T17:53:37.845Z,101805.03
2023-05-07T17:57:39.804Z,101802.16
2023-05-07T18:01:42.180Z,101811.59
2023-05-07T18:05:44.632Z,101811.78
2023-05-07T18:09:46.725Z,101809.94
2023-05-07T18:13:48.747Z,101815.31
2023-05-07T18:17:50.772Z,101816.75
2023-05-07T18:21:55.213Z,101831.13
2023-05-07T18:25:57.189Z,101816.84
2023-05-07T18:29:59.254Z,101831.31
2023-05-07T18:34:01.292Z,101831.75
2023-05-07T18:38:03.453Z,101833.22
2023-05-07T18:42:05.527Z,101828.53
2023-05-07T18:46:07.882Z,101844.69
2023-05-07T18:50:10.527Z,101826.06
2023-05-07T18:54:12.765Z,101824.56
2023-05-07T18:58:16.542Z,101792.06
2023-05-07T19:02:19.230Z,101798.97
2023-05-07T19:06:22.158Z,101785.03
2023-05-07T19:10:24.435Z,101771.47
2023-05-07T19:14:26.969Z,101770.91
2023-05-07T19:18:30.537Z,101763.25
2023-05-07T19:22:32.704Z,101771.97
2023-05-07T19:26:34.800Z,101770.16
2023-05-07T19:30:40.807Z,101776.56
2023-05-07T19:34:42.940Z,101785.31
2023-05-07T19:38:45.825Z,101775.94
2023-05-07T19:42:47.932Z,101787.31
2023-05-07T19:46:50.144Z,101801.47
2023-05-07T19:50:52.211Z,101796.25
2023-05-07T19:54:56.231Z,101792.94
2023-05-07T19:58:58.355Z,101798.34
2023-05-07T20:03:00.501Z,101799.38
2023-05-07T20:07:02.685Z,101797.75
2023-05-07T20:11:05.200Z,101801.34
2023-05-07T20:15:07.830Z,101804.91
2023-05-07T20:19:09.850Z,101812.84
2023-05-07T20:23:12.095Z,101812.03
2023-05-07T20:27:14.074Z,101812.16
2023-05-07T20:31:16.689Z,101814.94
2023-05-07T20:35:18.897Z,101816.69
2023-05-07T20:39:20.948Z,101819.38
2023-05-07T20:43:22.961Z,101822.84
2023-05-07T20:47:25.112Z,101826.47
2023-05-07T20:51:27.293Z,101828.34
2023-05-07T20:55:29.452Z,101825.81
2023-05-07T20:59:34.772Z,101832.72
2023-05-07T21:03:36.862Z,101837.16
2023-05-07T21:07:38.857Z,101844.16
2023-05-07T21:11:40.970Z,101850.25
2023-05-07T21:15:43.050Z,101849.59
2023-05-07T21:19:45.160Z,101848.72
2023-05-07T21:23:47.239Z,101866.94
2023-05-07T21:27:49.211Z,101866.16
2023-05-07T21:31:51.233Z,101873.00
2023-05-07T21:35:54.140Z,101878.28
2023-05-07T21:39:56.285Z,101880.94
2023-05-07T21:43:58.268Z,101885.34
2023-05-07T21:48:00.409Z,101880.16
2023-05-07T21:52:03.036Z,101894.88
2023-05-07T21:56:05.678Z,101896.66
2023-05-07T22:00:08.435Z,101896.69
2023-05-07T22:04:11.144Z,101901.03
2023-05-07T22:08:13.198Z,101892.47
2023-05-07T22:12:15.252Z,101898.56
2023-05-07T22:16:17.228Z,101899.44
2023-05-07T22:20:19.225Z,101891.66
2023-05-07T22:24:21.428Z,101897.78
2023-05-07T22:28:23.477Z,101891.72
2023-05-07T22:32:25.671Z,101906.47
2023-05-07T22:36:27.828Z,101896.09
2023-05-07T22:40:29.913Z,101899.59
2023-05-07T22:44:31.938Z,101897.03
2023-05-07T22:48:34.043Z,101900.50
2023-05-07T22:52:36.038Z,101904.84
2023-05-07T22:56:38.094Z,101896.22
2023-05-07T23:00:40.220Z,101902.28
2023-05-07T23:04:42.201Z,101897.09
2023-05-07T23:08:44.384Z,101897.09
2023-05-07T23:12:49.360Z,101898.00
2023-05-07T23:16:51.454Z,101895.41
2023-05-07T23:20:53.580Z,101901.50
2023-05-07T23:24:55.672Z,101911.84
2023-05-07T23:28:57.748Z,101904.97
2023-05-07T23:32:59.810Z,101898.06
2023-05-07T23:37:01.843Z,101901.50
2023-05-07T23:41:03.865Z,101904.13
2023-05-07T23:45:06.302Z,101899.81
2023-05-07T23:49:08.264Z,101894.63
2023-05-07T23:53:10.410Z,101889.44
2023-05-07T23:57:12.452Z,101895.50
